createdAt,value
2022-12-01T00:02:11.797Z,3.52
2022-12-01T00:05:14.972Z,3.49
2022-12-01T00:08:19.744Z,3.44
2022-12-01T00:11:22.675Z,3.42
2022-12-01T00:14:25.435Z,3.35
2022-12-01T00:17:30.021Z,3.45
2022-12-01T00:20:34.267Z,3.41
2022-12-01T00:23:37.223Z,3.26
2022-12-01T00:26:41.109Z,3.35
2022-12-01T00:29:44.163Z,3.26
2022-12-01T00:32:47.564Z,3.27
2022-12-01T00:35:50.502Z,3.35
2022-12-01T00:38:57.096Z,3.26
2022-12-01T00:42:00.034Z,3.23
2022-12-01T00:45:02.776Z,3.11
2022-12-01T00:48:05.885Z,3.43
2022-12-01T00:51:08.619Z,3.48
2022-12-01T00:54:11.587Z,3.25
2022-12-01T00:57:14.240Z,3.33
2022-12-01T01:00:17.628Z,3.28
2022-12-01T01:03:20.354Z,3.34
2022-12-01T01:06:23.506Z,3.36
2022-12-01T01:09:26.274Z,3.39
2022-12-01T01:12:29.200Z,3.25
2022-12-01T01:15:31.839Z,3.36
2022-12-01T01:18:34.803Z,3.16
2022-12-01T01:21:37.484Z,3.20
2022-12-01T01:24:40.396Z,3.07
2022-12-01T01:27:43.042Z,3.08
2022-12-01T01:30:46.635Z,3.19
2022-12-01T01:33:49.427Z,3.28
2022-12-01T01:36:52.383Z,2.98
2022-12-01T01:39:55.452Z,3.40
2022-12-01T01:42:58.359Z,3.21
2022-12-01T01:46:01.017Z,3.25
2022-12-01T01:49:09.867Z,3.16
2022-12-01T01:52:14.480Z,3.27
2022-12-01T01:55:17.899Z,3.23
2022-12-01T01:58:21.061Z,3.36
2022-12-01T02:01:24.165Z,3.28
2022-12-01T02:04:28.644Z,3.32
2022-12-01T02:07:31.327Z,3.24
2022-12-01T02:10:52.555Z,3.46
2022-12-01T02:14:25.840Z,3.31
2022-12-01T02:17:51.939Z,3.45
2022-12-01T02:21:23.535Z,3.46
2022-12-01T02:24:26.516Z,3.64
2022-12-01T02:27:49.370Z,3.53
2022-12-01T02:31:35.551Z,3.46
2022-12-01T02:34:43.514Z,3.44
2022-12-01T02:38:00.742Z,3.46
2022-12-01T02:41:16.947Z,3.36
2022-12-01T02:44:30.548Z,3.43
2022-12-01T02:47:34.397Z,3.31
2022-12-01T02:50:39.975Z,3.14
2022-12-01T02:53:42.703Z,2.97
2022-12-01T02:56:45.720Z,2.95
2022-12-01T02:59:53.011Z,2.97
2022-12-01T03:03:21.979Z,2.90
2022-12-01T03:06:37.651Z,2.81
2022-12-01T03:10:05.672Z,2.91
2022-12-01T03:13:20.211Z,3.23
2022-12-01T03:16:55.127Z,3.23
2022-12-01T03:20:08.787Z,3.22
2022-12-01T03:23:16.510Z,3.22
2022-12-01T03:26:23.049Z,3.29
2022-12-01T03:29:41.401Z,3.32
2022-12-01T03:32:49.530Z,3.49
2022-12-01T03:36:05.149Z,3.15
2022-12-01T03:39:15.478Z,3.15
2022-12-01T03:42:24.576Z,3.36
2022-12-01T03:45:34.719Z,3.33
2022-12-01T03:48:39.856Z,3.28
2022-12-01T03:52:04.138Z,3.23
2022-12-01T03:55:30.718Z,3.07
2022-12-01T03:58:45.277Z,3.10
2022-12-01T04:01:51.706Z,2.65
2022-12-01T04:04:54.783Z,2.90
2022-12-01T04:07:57.432Z,2.87
2022-12-01T04:11:00.398Z,2.87
2022-12-01T04:14:02.995Z,2.60
2022-12-01T04:17:05.985Z,2.59
2022-12-01T04:20:09.334Z,2.44
2022-12-01T04:23:32.520Z,2.76
2022-12-01T04:26:37.337Z,2.74
2022-12-01T04:29:40.808Z,2.66
2022-12-01T04:32:43.841Z,2.72
2022-12-01T04:35:46.695Z,2.35
2022-12-01T04:38:49.298Z,2.45
2022-12-01T04:41:52.307Z,2.72
2022-12-01T04:44:54.874Z,2.66
2022-12-01T04:47:57.791Z,2.85
2022-12-01T04:51:00.447Z,2.62
2022-12-01T04:54:03.575Z,2.64
2022-12-01T04:57:06.187Z,2.73
2022-12-01T05:00:13.384Z,2.58
2022-12-01T05:03:16.067Z,2.65
2022-12-01T05:06:22.652Z,2.33
2022-12-01T05:09:25.305Z,2.46
2022-12-01T05:12:28.274Z,2.70
2022-12-01T05:15:31.377Z,2.60
2022-12-01T05:18:34.629Z,2.62
2022-12-01T05:21:38.491Z,2.46
2022-12-01T05:24:42.693Z,2.45
2022-12-01T05:27:45.365Z,2.65
2022-12-01T05:30:48.797Z,2.68
2022-12-01T05:33:51.360Z,2.58
2022-12-01T05:36:54.286Z,2.24
2022-12-01T05:39:57.348Z,2.68
2022-12-01T05:43:00.410Z,2.74
2022-12-01T05:46:04.041Z,2.50
2022-12-01T05:49:07.122Z,2.35
2022-12-01T05:52:09.852Z,2.42
2022-12-01T05:55:12.820Z,2.64
2022-12-01T05:58:15.447Z,2.74
2022-12-01T06:01:18.645Z,2.96
2022-12-01T06:04:22.585Z,2.72
2022-12-01T06:07:26.078Z,2.75
2022-12-01T06:10:29.501Z,3.00
2022-12-01T06:13:32.120Z,2.77
2022-12-01T06:16:35.524Z,3.04
2022-12-01T06:19:38.427Z,2.61
2022-12-01T06:22:41.555Z,2.91
2022-12-01T06:25:44.183Z,2.62
2022-12-01T06:28:47.093Z,3.36
2022-12-01T06:31:49.750Z,3.05
2022-12-01T06:34:52.715Z,3.27
2022-12-01T06:37:55.586Z,3.37
2022-12-01T06:40:58.468Z,3.57
2022-12-01T06:44:02.130Z,2.93
2022-12-01T06:47:05.168Z,2.83
2022-12-01T06:50:10.021Z,3.48
2022-12-01T06:53:13.480Z,3.84
2022-12-01T06:56:17.787Z,3.43
2022-12-01T06:59:21.122Z,3.36
2022-12-01T07:02:24.274Z,2.87
2022-12-01T07:05:27.326Z,2.78
2022-12-01T07:08:31.231Z,2.42
2022-12-01T07:11:36.440Z,2.89
2022-12-01T07:14:40.040Z,2.32
2022-12-01T07:17:42.902Z,2.65
2022-12-01T07:20:45.453Z,2.88
2022-12-01T07:23:48.417Z,2.98
2022-12-01T07:26:51.015Z,2.67
2022-12-01T07:29:54.147Z,2.43
2022-12-01T07:32:56.791Z,3.07
2022-12-01T07:35:59.716Z,2.98
2022-12-01T07:39:09.103Z,2.74
2022-12-01T07:42:12.050Z,2.51
2022-12-01T07:45:14.682Z,3.76
2022-12-01T07:48:17.648Z,3.88
2022-12-01T07:51:22.495Z,3.55
2022-12-01T07:54:26.298Z,3.21
2022-12-01T07:57:28.806Z,3.47
2022-12-01T08:00:31.887Z,3.98
2022-12-01T08:03:35.658Z,3.60
2022-12-01T08:06:38.345Z,4.04
2022-12-01T08:09:41.427Z,3.93
2022-12-01T08:12:46.680Z,4.34
2022-12-01T08:15:49.610Z,3.93
2022-12-01T08:18:53.474Z,3.55
2022-12-01T08:21:56.871Z,3.91
2022-12-01T08:24:59.908Z,4.52
2022-12-01T08:28:03.270Z,4.39
2022-12-01T08:31:24.141Z,4.53
2022-12-01T08:34:27.470Z,4.67
2022-12-01T08:37:30.115Z,4.19
2022-12-01T08:40:33.261Z,4.52
2022-12-01T08:44:00.351Z,4.70
2022-12-01T08:47:07.212Z,4.23
2022-12-01T08:50:11.137Z,4.18
2022-12-01T08:53:14.179Z,4.46
2022-12-01T08:56:23.035Z,3.86
2022-12-01T08:59:26.415Z,3.75
2022-12-01T09:02:29.727Z,4.47
2022-12-01T09:05:32.812Z,4.93
2022-12-01T09:08:36.509Z,4.49
2022-12-01T09:11:40.970Z,4.97
2022-12-01T09:14:49.773Z,4.80
2022-12-01T09:17:52.765Z,4.34
2022-12-01T09:20:57.606Z,4.24
2022-12-01T09:24:01.946Z,5.22
2022-12-01T09:27:05.383Z,5.06
2022-12-01T09:30:08.867Z,5.32
2022-12-01T09:33:11.837Z,6.01
2022-12-01T09:36:14.799Z,5.97
2022-12-01T09:39:19.923Z,5.68
2022-12-01T09:42:32.227Z,5.70
2022-12-01T09:45:44.270Z,5.90
2022-12-01T09:48:49.861Z,5.66
2022-12-01T09:51:54.417Z,6.11
2022-12-01T09:54:59.447Z,6.63
2022-12-01T09:58:04.473Z,6.91
2022-12-01T10:01:15.888Z,6.54
2022-12-01T10:04:40.054Z,6.62
2022-12-01T10:07:54.068Z,7.27
2022-12-01T10:11:13.438Z,6.87
2022-12-01T10:14:20.747Z,6.76
2022-12-01T10:18:11.464Z,7.00
2022-12-01T10:21:20.176Z,6.79
2022-12-01T10:24:31.952Z,6.42
2022-12-01T10:27:51.166Z,6.45
2022-12-01T10:31:03.575Z,6.93
2022-12-01T10:34:21.577Z,6.61
2022-12-01T10:37:30.358Z,6.75
2022-12-01T10:40:36.209Z,7.31
2022-12-01T10:43:47.494Z,7.17
2022-12-01T10:46:56.244Z,7.44
2022-12-01T10:49:59.332Z,7.92
2022-12-01T10:53:03.575Z,7.38
2022-12-01T10:56:12.572Z,7.12
2022-12-01T10:59:30.650Z,7.14
2022-12-01T11:02:34.905Z,7.19
2022-12-01T11:05:42.404Z,7.05
2022-12-01T11:09:07.303Z,7.37
2022-12-01T11:12:16.663Z,7.76
2022-12-01T11:15:24.418Z,6.83
2022-12-01T11:18:34.669Z,7.53
2022-12-01T11:21:46.883Z,7.55
2022-12-01T11:24:52.575Z,7.61
2022-12-01T11:28:01.438Z,8.13
2022-12-01T11:31:08.283Z,7.33
2022-12-01T11:34:34.605Z,7.57
2022-12-01T11:37:54.793Z,7.41
2022-12-01T11:41:03.565Z,7.92
2022-12-01T11:44:35.645Z,7.35
2022-12-01T11:48:10.411Z,7.16
2022-12-01T11:51:39.221Z,7.39
2022-12-01T11:54:56.259Z,7.52
2022-12-01T11:58:03.032Z,7.49
2022-12-01T12:01:22.295Z,7.50
2022-12-01T12:04:31.125Z,7.51
2022-12-01T12:07:46.059Z,7.45
2022-12-01T12:11:04.081Z,7.10
2022-12-01T12:14:28.538Z,7.17
2022-12-01T12:17:46.956Z,7.31
2022-12-01T12:21:26.543Z,7.31
2022-12-01T12:24:49.112Z,7.86
2022-12-01T12:28:13.554Z,7.16
2022-12-01T12:31:35.268Z,7.19
2022-12-01T12:34:56.498Z,7.12
2022-12-01T12:38:24.464Z,7.31
2022-12-01T12:41:36.339Z,7.74
2022-12-01T12:45:11.533Z,7.41
2022-12-01T12:52:16.787Z,7.20
2022-12-01T12:55:30.737Z,7.05
2022-12-01T12:58:49.625Z,6.89
2022-12-01T13:02:06.701Z,7.13
2022-12-01T13:05:22.906Z,7.12
2022-12-01T13:08:40.224Z,7.27
2022-12-01T13:11:59.394Z,7.20
2022-12-01T13:15:23.024Z,8.07
2022-12-01T13:18:34.795Z,7.33
2022-12-01T13:21:43.899Z,7.33
2022-12-01T13:24:46.939Z,7.02
2022-12-01T13:27:51.403Z,6.84
2022-12-01T13:31:13.562Z,6.69
2022-12-01T13:34:33.512Z,6.53
2022-12-01T13:37:38.671Z,6.97
2022-12-01T13:40:41.345Z,7.02
2022-12-01T13:44:20.237Z,7.18
2022-12-01T13:47:22.909Z,6.98
2022-12-01T13:50:44.114Z,7.00
2022-12-01T13:53:56.991Z,6.69
2022-12-01T13:57:10.797Z,6.68
2022-12-01T14:00:29.068Z,6.75
2022-12-01T14:03:38.359Z,6.49
2022-12-01T14:06:49.385Z,6.72
2022-12-01T14:09:57.766Z,6.52
2022-12-01T14:13:04.148Z,6.57
2022-12-01T14:16:08.632Z,6.48
2022-12-01T14:19:30.950Z,6.47
2022-12-01T14:22:33.898Z,6.01
2022-12-01T14:25:37.636Z,5.92
2022-12-01T14:28:56.055Z,5.93
2022-12-01T14:32:01.392Z,5.59
2022-12-01T14:35:10.460Z,5.61
2022-12-01T14:38:13.503Z,5.65
2022-12-01T14:41:32.291Z,5.41
2022-12-01T14:44:36.540Z,5.54
2022-12-01T14:47:47.759Z,5.66
2022-12-01T14:50:55.723Z,5.54
2022-12-01T14:54:02.566Z,5.63
2022-12-01T14:57:11.108Z,5.64
2022-12-01T15:00:23.055Z,5.62
2022-12-01T15:03:32.252Z,5.78
2022-12-01T15:06:37.660Z,5.66
2022-12-01T15:09:59.879Z,5.44
2022-12-01T15:13:19.945Z,5.40
2022-12-01T15:16:25.276Z,5.39
2022-12-01T15:19:33.440Z,5.44
2022-12-01T15:22:36.125Z,5.26
2022-12-01T15:25:45.316Z,5.23
2022-12-01T15:28:48.034Z,5.20
2022-12-01T15:31:54.735Z,5.05
2022-12-01T15:35:02.087Z,5.05
2022-12-01T15:38:05.248Z,5.11
2022-12-01T15:41:31.997Z,4.87
2022-12-01T15:44:36.628Z,4.69
2022-12-01T15:47:45.195Z,4.60
2022-12-01T15:51:01.198Z,4.55
2022-12-01T15:54:04.088Z,4.44
2022-12-01T15:57:07.793Z,4.12
2022-12-01T16:00:19.961Z,4.22
2022-12-01T16:03:22.922Z,4.18
2022-12-01T16:06:30.696Z,4.00
2022-12-01T16:09:33.970Z,3.95
2022-12-01T16:12:37.152Z,3.90
2022-12-01T16:15:44.105Z,3.90
2022-12-01T16:18:58.742Z,4.00
2022-12-01T16:22:10.835Z,3.95
2022-12-01T16:25:30.096Z,3.65
2022-12-01T16:28:37.754Z,3.39
2022-12-01T16:31:58.609Z,3.32
2022-12-01T16:35:05.040Z,3.22
2022-12-01T16:38:16.241Z,3.20
2022-12-01T16:41:39.161Z,3.49
2022-12-01T16:44:43.662Z,3.65
2022-12-01T16:47:48.684Z,3.41
2022-12-01T16:50:53.273Z,3.22
2022-12-01T16:53:56.397Z,3.09
2022-12-01T16:56:59.038Z,2.94
2022-12-01T17:00:02.257Z,2.95
2022-12-01T17:03:05.709Z,2.82
2022-12-01T17:06:15.166Z,2.68
2022-12-01T17:09:19.454Z,2.57
2022-12-01T17:12:26.396Z,2.51
2022-12-01T17:15:29.017Z,2.46
2022-12-01T17:18:34.490Z,2.59
2022-12-01T17:21:37.379Z,2.67
2022-12-01T17:24:42.738Z,2.33
2022-12-01T17:27:45.880Z,2.25
2022-12-01T17:30:49.877Z,2.12
2022-12-01T17:33:52.722Z,2.42
2022-12-01T17:36:55.753Z,2.11
2022-12-01T17:39:59.414Z,1.98
2022-12-01T17:43:02.506Z,1.92
2022-12-01T17:46:07.149Z,1.85
2022-12-01T17:49:10.733Z,1.75
2022-12-01T17:52:13.504Z,1.92
2022-12-01T17:55:16.755Z,2.09
2022-12-01T17:58:21.649Z,2.00
2022-12-01T18:01:29.939Z,2.04
2022-12-01T18:04:33.857Z,2.00
2022-12-01T18:07:36.488Z,1.64
2022-12-01T18:10:39.667Z,1.70
2022-12-01T18:13:48.324Z,1.52
2022-12-01T18:16:52.407Z,1.39
2022-12-01T18:19:55.104Z,1.23
2022-12-01T18:22:58.049Z,1.26
2022-12-01T18:26:08.636Z,1.29
2022-12-01T18:29:26.036Z,1.16
2022-12-01T18:32:29.108Z,1.07
2022-12-01T18:35:32.510Z,1.01
2022-12-01T18:38:35.292Z,1.26
2022-12-01T18:41:38.965Z,1.14
2022-12-01T18:44:42.487Z,1.08
2022-12-01T18:47:45.868Z,1.09
2022-12-01T18:50:50.448Z,1.19
2022-12-01T18:53:57.849Z,1.08
2022-12-01T18:57:00.863Z,1.05
2022-12-01T19:00:10.044Z,1.01
2022-12-01T19:03:12.980Z,0.90
2022-12-01T19:06:16.852Z,0.97
2022-12-01T19:09:22.276Z,0.90
2022-12-01T19:12:25.485Z,1.42
2022-12-01T19:15:29.639Z,1.35
2022-12-01T19:18:33.239Z,1.25
2022-12-01T19:21:36.622Z,1.07
2022-12-01T19:24:39.966Z,1.02
2022-12-01T19:27:42.834Z,0.96
2022-12-01T19:30:48.295Z,0.93
2022-12-01T19:33:53.701Z,0.91
2022-12-01T19:36:56.938Z,0.90
2022-12-01T19:39:59.838Z,0.81
2022-12-01T19:43:03.423Z,0.82
2022-12-01T19:46:08.652Z,0.84
2022-12-01T19:49:11.934Z,1.04
2022-12-01T19:52:14.635Z,0.88
2022-12-01T19:55:17.932Z,1.25
2022-12-01T19:58:20.878Z,1.50
2022-12-01T20:01:25.207Z,1.49
2022-12-01T20:04:28.653Z,1.67
2022-12-01T20:07:31.253Z,1.73
2022-12-01T20:10:34.539Z,1.81
2022-12-01T20:13:39.934Z,1.67
2022-12-01T20:16:43.379Z,1.68
2022-12-01T20:19:46.962Z,1.47
2022-12-01T20:22:50.407Z,1.71
2022-12-01T20:25:53.459Z,1.68
2022-12-01T20:29:00.640Z,1.75
2022-12-01T20:32:04.353Z,1.57
2022-12-01T20:35:08.291Z,1.64
2022-12-01T20:38:11.729Z,1.68
2022-12-01T20:41:16.934Z,1.76
2022-12-01T20:44:19.894Z,1.85
2022-12-01T20:47:22.814Z,2.04
2022-12-01T20:50:25.879Z,1.93
2022-12-01T20:53:29.379Z,1.81
2022-12-01T20:56:32.747Z,2.07
2022-12-01T20:59:36.758Z,2.48
2022-12-01T21:02:40.256Z,2.50
2022-12-01T21:05:45.814Z,2.20
2022-12-01T21:08:51.175Z,2.09
2022-12-01T21:12:32.302Z,1.93
2022-12-01T21:15:46.767Z,2.05
2022-12-01T21:18:55.862Z,2.07
2022-12-01T21:21:58.962Z,2.17
2022-12-01T21:25:15.842Z,2.10
2022-12-01T21:28:22.392Z,2.19
2022-12-01T21:31:26.084Z,2.15
2022-12-01T21:34:29.322Z,2.45
2022-12-01T21:37:32.312Z,2.63
2022-12-01T21:40:37.342Z,2.49
2022-12-01T21:43:40.203Z,2.51
2022-12-01T21:46:43.516Z,2.31
2022-12-01T21:49:49.069Z,2.30
2022-12-01T21:52:51.641Z,2.52
2022-12-01T21:55:56.159Z,2.50
2022-12-01T21:59:19.558Z,2.47
2022-12-01T22:02:37.397Z,2.49
2022-12-01T22:06:00.940Z,2.63
2022-12-01T22:09:17.638Z,2.62
2022-12-01T22:12:29.105Z,2.72
2022-12-01T22:15:41.659Z,2.62
2022-12-01T22:18:49.278Z,2.61
2022-12-01T22:22:03.061Z,2.61
2022-12-01T22:25:25.445Z,2.61
2022-12-01T22:28:28.788Z,2.67
2022-12-01T22:31:31.779Z,3.02
2022-12-01T22:34:34.666Z,2.86
2022-12-01T22:37:44.674Z,2.81
2022-12-01T22:41:14.545Z,2.81
2022-12-01T22:44:17.905Z,2.81
2022-12-01T22:47:20.524Z,2.88
2022-12-01T22:50:30.678Z,3.10
2022-12-01T22:53:33.252Z,3.04
2022-12-01T22:56:49.881Z,3.31
2022-12-01T22:59:53.225Z,3.16
2022-12-01T23:02:56.563Z,3.37
2022-12-01T23:05:59.209Z,3.47
2022-12-01T23:09:02.068Z,3.49
2022-12-01T23:12:21.675Z,3.48
2022-12-01T23:15:45.373Z,3.36
2022-12-01T23:18:48.118Z,3.53
2022-12-01T23:21:52.647Z,3.70
2022-12-01T23:24:55.248Z,3.39
2022-12-01T23:28:00.921Z,3.43
2022-12-01T23:31:03.684Z,3.59
2022-12-01T23:34:13.633Z,3.45
2022-12-01T23:37:33.207Z,3.62
2022-12-01T23:40:36.392Z,3.26
2022-12-01T23:43:41.533Z,3.24
2022-12-01T23:46:44.519Z,3.21
2022-12-01T23:49:48.248Z,3.38
2022-12-01T23:52:51.882Z,3.43
2022-12-01T23:55:56.129Z,3.34
2022-12-01T23:59:01.307Z,3.45
